createdAt,value
2018-07-28T00:00:27.877Z,16.86
2018-07-28T00:01:27.827Z,16.89
2018-07-28T00:02:27.843Z,16.89
2018-07-28T00:03:27.801Z,16.86
2018-07-28T00:04:27.819Z,16.86
2018-07-28T00:05:27.797Z,16.85
2018-07-28T00:06:27.783Z,16.75
2018-07-28T00:07:27.782Z,16.73
2018-07-28T00:08:27.779Z,16.76
2018-07-28T00:09:27.754Z,16.78
2018-07-28T00:10:27.762Z,16.70
2018-07-28T00:11:27.726Z,16.76
2018-07-28T00:12:27.706Z,16.73
2018-07-28T00:13:27.705Z,16.78
2018-07-28T00:14:27.707Z,16.73
2018-07-28T00:15:27.693Z,16.71
2018-07-28T00:16:27.673Z,16.58
2018-07-28T00:17:27.638Z,16.53
2018-07-28T00:18:27.631Z,16.68
2018-07-28T00:19:27.666Z,16.68
2018-07-28T00:20:27.641Z,16.68
2018-07-28T00:21:27.655Z,16.67
2018-07-28T00:22:27.586Z,16.71
2018-07-28T00:23:27.591Z,16.66
2018-07-28T00:24:27.600Z,16.71
2018-07-28T00:25:27.606Z,16.64
2018-07-28T00:26:27.571Z,16.67
2018-07-28T00:27:27.552Z,16.66
2018-07-28T00:28:27.537Z,16.61
2018-07-28T00:29:27.528Z,16.61
2018-07-28T00:30:27.533Z,16.56
2018-07-28T00:31:27.535Z,16.61
2018-07-28T00:32:27.475Z,16.53
2018-07-28T00:33:27.482Z,16.57
2018-07-28T00:34:27.474Z,16.50
2018-07-28T00:35:27.470Z,16.56
2018-07-28T00:36:27.455Z,16.50
2018-07-28T00:37:27.456Z,16.53
2018-07-28T00:38:27.477Z,16.49
2018-07-28T00:39:27.392Z,16.49
2018-07-28T00:40:27.408Z,16.53
2018-07-28T00:41:27.387Z,16.57
2018-07-28T00:42:27.387Z,16.52
2018-07-28T00:43:27.348Z,16.50
2018-07-28T00:44:27.383Z,16.49
2018-07-28T00:45:27.323Z,16.50
2018-07-28T00:46:27.329Z,16.45
2018-07-28T00:47:27.349Z,16.48
2018-07-28T00:48:27.306Z,16.53
2018-07-28T00:49:27.295Z,16.45
2018-07-28T00:50:27.306Z,16.52
2018-07-28T00:51:27.257Z,16.45
2018-07-28T00:52:27.267Z,16.39
2018-07-28T00:53:27.272Z,16.33
2018-07-28T00:54:27.254Z,16.48
2018-07-28T00:55:27.230Z,16.30
2018-07-28T00:56:27.195Z,16.42
2018-07-28T00:57:27.223Z,16.34
2018-07-28T00:58:27.184Z,16.43
2018-07-28T00:59:27.183Z,16.34
2018-07-28T01:00:27.194Z,16.31
2018-07-28T01:01:27.163Z,16.34
2018-07-28T01:02:27.160Z,16.34
2018-07-28T01:03:27.168Z,16.38
2018-07-28T01:04:27.156Z,16.41
2018-07-28T01:05:27.114Z,16.41
2018-07-28T01:06:27.101Z,16.34
2018-07-28T01:07:27.090Z,16.33
2018-07-28T01:08:27.072Z,16.38
2018-07-28T01:09:27.085Z,16.35
2018-07-28T01:10:27.048Z,16.28
2018-07-28T01:11:27.060Z,16.33
2018-07-28T01:12:27.083Z,16.30
2018-07-28T01:13:27.005Z,16.34
2018-07-28T01:14:26.999Z,16.25
2018-07-28T01:15:27.022Z,16.17
2018-07-28T01:16:26.997Z,16.30
2018-07-28T01:17:26.976Z,16.17
2018-07-28T01:18:26.979Z,16.20
2018-07-28T01:19:26.954Z,16.07
2018-07-28T01:20:26.934Z,16.08
2018-07-28T01:21:26.948Z,16.14
2018-07-28T01:22:26.911Z,16.08
2018-07-28T01:23:26.921Z,16.07
2018-07-28T01:24:26.917Z,16.08
2018-07-28T01:25:26.888Z,16.08
2018-07-28T01:26:26.865Z,16.08
2018-07-28T01:27:26.879Z,16.11
2018-07-28T01:28:26.837Z,16.12
2018-07-28T01:29:26.846Z,16.08
2018-07-28T01:30:26.837Z,16.12
2018-07-28T01:31:26.804Z,16.11
2018-07-28T01:32:26.823Z,16.08
2018-07-28T01:33:26.797Z,16.14
2018-07-28T01:34:26.772Z,16.07
2018-07-28T01:35:26.759Z,16.09
2018-07-28T01:36:26.780Z,16.09
2018-07-28T01:37:26.748Z,16.12
2018-07-28T01:38:26.770Z,16.15
2018-07-28T01:39:26.710Z,16.07
2018-07-28T01:40:26.712Z,16.08
2018-07-28T01:41:26.730Z,16.12
2018-07-28T01:42:26.719Z,16.12
2018-07-28T01:43:26.684Z,16.08
2018-07-28T01:44:26.672Z,16.08
2018-07-28T01:45:26.668Z,16.05
2018-07-28T01:46:26.653Z,16.07
2018-07-28T01:47:26.632Z,16.02
2018-07-28T01:48:26.658Z,16.02
2018-07-28T01:49:26.620Z,15.97
2018-07-28T01:50:26.588Z,16.08
2018-07-28T01:51:26.596Z,15.97
2018-07-28T01:52:26.580Z,16.07
2018-07-28T01:53:26.599Z,16.00
2018-07-28T01:54:26.557Z,15.96
2018-07-28T01:55:26.553Z,16.04
2018-07-28T01:56:26.548Z,15.89
2018-07-28T01:57:26.514Z,15.92
2018-07-28T01:58:26.502Z,15.96
2018-07-28T01:59:26.512Z,15.93
2018-07-28T02:00:27.440Z,15.92
2018-07-28T02:01:26.481Z,15.92
2018-07-28T02:02:26.465Z,15.87
2018-07-28T02:03:26.449Z,15.76
2018-07-28T02:04:26.422Z,15.74
2018-07-28T02:05:26.425Z,15.74
2018-07-28T02:06:26.456Z,15.83
2018-07-28T02:07:26.414Z,15.82
2018-07-28T02:08:26.416Z,15.71
2018-07-28T02:09:26.387Z,15.80
2018-07-28T02:10:26.386Z,15.83
2018-07-28T02:11:26.349Z,15.86
2018-07-28T02:12:26.357Z,15.76
2018-07-28T02:13:26.323Z,15.75
2018-07-28T02:14:26.320Z,15.86
2018-07-28T02:15:26.316Z,15.75
2018-07-28T02:16:26.289Z,15.80
2018-07-28T02:17:26.276Z,15.74
2018-07-28T02:18:26.299Z,15.80
2018-07-28T02:19:26.298Z,15.78
2018-07-28T02:20:26.248Z,15.80
2018-07-28T02:21:26.944Z,15.76
2018-07-28T02:22:26.218Z,15.64
2018-07-28T02:23:26.224Z,15.62
2018-07-28T02:24:26.196Z,15.67
2018-07-28T02:25:26.227Z,15.60
2018-07-28T02:26:26.202Z,15.60
2018-07-28T02:27:26.164Z,15.62
2018-07-28T02:28:26.182Z,15.50
2018-07-28T02:29:26.138Z,15.62
2018-07-28T02:30:26.129Z,15.68
2018-07-28T02:31:26.117Z,15.64
2018-07-28T02:32:26.135Z,15.57
2018-07-28T02:33:26.096Z,15.60
2018-07-28T02:34:26.092Z,15.65
2018-07-28T02:35:26.074Z,15.65
2018-07-28T02:36:26.063Z,15.69
2018-07-28T02:37:26.084Z,15.62
2018-07-28T02:38:26.038Z,15.59
2018-07-28T02:39:26.031Z,15.64
2018-07-28T02:40:26.055Z,15.50
2018-07-28T02:41:26.035Z,15.50
2018-07-28T02:42:26.018Z,15.53
2018-07-28T02:43:26.066Z,15.60
2018-07-28T02:44:26.001Z,15.62
2018-07-28T02:45:25.961Z,15.56
2018-07-28T02:46:25.982Z,15.59
2018-07-28T02:47:25.936Z,15.59
2018-07-28T02:48:25.926Z,15.54
2018-07-28T02:49:25.936Z,15.57
2018-07-28T02:50:25.900Z,15.59
2018-07-28T02:51:25.910Z,15.59
2018-07-28T02:52:25.911Z,15.59
2018-07-28T02:53:25.865Z,15.54
2018-07-28T02:54:25.883Z,15.43
2018-07-28T02:55:25.848Z,15.57
2018-07-28T02:56:25.843Z,15.43
2018-07-28T02:57:25.842Z,15.46
2018-07-28T02:58:25.836Z,15.47
2018-07-28T02:59:25.802Z,15.49
2018-07-28T03:00:25.829Z,15.46
2018-07-28T03:01:25.830Z,15.46
2018-07-28T03:02:25.790Z,15.56
2018-07-28T03:03:25.800Z,15.49
2018-07-28T03:04:25.756Z,15.41
2018-07-28T03:05:25.753Z,15.44
2018-07-28T03:06:25.748Z,15.56
2018-07-28T03:07:25.731Z,15.50
2018-07-28T03:08:25.701Z,15.50
2018-07-28T03:09:25.706Z,15.51
2018-07-28T03:10:25.687Z,15.44
2018-07-28T03:11:25.686Z,15.50
2018-07-28T03:12:25.650Z,15.50
2018-07-28T03:13:25.681Z,15.32
2018-07-28T03:14:25.640Z,15.44
2018-07-28T03:15:25.641Z,15.47
2018-07-28T03:16:25.622Z,15.46
2018-07-28T03:17:25.617Z,15.47
2018-07-28T03:18:25.619Z,15.43
2018-07-28T03:19:25.571Z,15.44
2018-07-28T03:20:25.585Z,15.44
2018-07-28T03:21:25.590Z,15.44
2018-07-28T03:22:25.560Z,15.35
2018-07-28T03:23:25.562Z,15.36
2018-07-28T03:24:25.570Z,15.39
2018-07-28T03:25:25.523Z,15.39
2018-07-28T03:26:25.490Z,15.38
2018-07-28T03:27:26.504Z,15.35
2018-07-28T03:28:25.540Z,15.29
2018-07-28T03:29:25.474Z,15.28
2018-07-28T03:30:25.444Z,15.29
2018-07-28T03:31:25.456Z,15.32
2018-07-28T03:32:25.433Z,15.28
2018-07-28T03:33:25.452Z,15.34
2018-07-28T03:34:25.435Z,15.31
2018-07-28T03:35:25.396Z,15.27
2018-07-28T03:36:25.392Z,15.31
2018-07-28T03:37:25.367Z,15.23
2018-07-28T03:38:25.373Z,15.27
2018-07-28T03:39:25.384Z,15.31
2018-07-28T03:40:25.341Z,15.31
2018-07-28T03:41:25.318Z,15.32
2018-07-28T03:42:25.319Z,15.25
2018-07-28T03:43:25.354Z,15.29
2018-07-28T03:44:25.305Z,15.28
2018-07-28T03:45:25.291Z,15.28
2018-07-28T03:46:25.284Z,15.35
2018-07-28T03:47:25.283Z,15.36
2018-07-28T03:48:25.240Z,15.36
2018-07-28T03:49:25.281Z,15.43
2018-07-28T03:50:25.277Z,15.41
2018-07-28T03:51:25.238Z,15.44
2018-07-28T03:52:25.205Z,15.39
2018-07-28T03:53:25.220Z,15.44
2018-07-28T03:54:25.169Z,15.41
2018-07-28T03:55:25.188Z,15.47
2018-07-28T03:56:25.216Z,15.50
2018-07-28T03:57:25.144Z,15.43
2018-07-28T03:58:25.137Z,15.41
2018-07-28T03:59:25.180Z,15.49
2018-07-28T04:00:25.166Z,15.47
2018-07-28T04:01:25.099Z,15.47
2018-07-28T04:02:25.118Z,15.53
2018-07-28T04:03:25.116Z,15.51
2018-07-28T04:04:25.134Z,15.62
2018-07-28T04:05:25.137Z,15.57
2018-07-28T04:06:25.048Z,15.62
2018-07-28T04:07:25.028Z,15.64
2018-07-28T04:08:25.024Z,15.56
2018-07-28T04:09:25.026Z,15.50
2018-07-28T04:10:25.012Z,15.51
2018-07-28T04:11:25.028Z,15.67
2018-07-28T04:12:24.970Z,15.59
2018-07-28T04:13:24.955Z,15.59
2018-07-28T04:14:25.021Z,15.64
2018-07-28T04:15:24.948Z,15.65
2018-07-28T04:16:24.965Z,15.67
2018-07-28T04:17:24.906Z,15.54
2018-07-28T04:18:24.934Z,15.60
2018-07-28T04:19:24.908Z,15.60
2018-07-28T04:20:24.885Z,15.60
2018-07-28T04:21:24.865Z,15.64
2018-07-28T04:22:24.870Z,15.78
2018-07-28T04:23:24.900Z,15.82
2018-07-28T04:24:24.874Z,15.76
2018-07-28T04:25:24.846Z,15.75
2018-07-28T04:26:24.807Z,15.75
2018-07-28T04:27:24.864Z,15.86
2018-07-28T04:28:24.827Z,15.89
2018-07-28T04:29:24.803Z,15.94
2018-07-28T04:30:24.756Z,16.01
2018-07-28T04:31:24.764Z,16.05
2018-07-28T04:32:24.766Z,16.02
2018-07-28T04:33:24.736Z,16.04
2018-07-28T04:34:24.734Z,16.08
2018-07-28T04:35:24.759Z,16.05
2018-07-28T04:36:24.715Z,16.07
2018-07-28T04:37:24.759Z,16.05
2018-07-28T04:38:24.694Z,16.12
2018-07-28T04:39:24.718Z,16.21
2018-07-28T04:40:24.666Z,16.21
2018-07-28T04:41:24.677Z,16.23
2018-07-28T04:42:24.716Z,16.24
2018-07-28T04:43:24.635Z,16.34
2018-07-28T04:44:24.649Z,16.27
2018-07-28T04:45:24.587Z,16.35
2018-07-28T04:46:24.633Z,16.31
2018-07-28T04:47:24.582Z,16.33
2018-07-28T04:48:24.608Z,16.43
2018-07-28T04:49:24.561Z,16.38
2018-07-28T04:50:24.577Z,16.35
2018-07-28T04:51:24.542Z,16.45
2018-07-28T04:52:24.509Z,16.49
2018-07-28T04:53:24.537Z,16.58
2018-07-28T04:54:24.498Z,16.70
2018-07-28T04:55:24.491Z,16.57
2018-07-28T04:56:24.530Z,16.64
2018-07-28T04:57:24.502Z,16.68
2018-07-28T04:58:24.479Z,16.70
2018-07-28T04:59:24.454Z,16.78
2018-07-28T05:00:24.455Z,16.78
2018-07-28T05:01:24.406Z,16.82
2018-07-28T05:02:24.447Z,16.73
2018-07-28T05:03:24.388Z,16.79
2018-07-28T05:04:24.378Z,16.89
2018-07-28T05:05:24.381Z,16.89
2018-07-28T05:06:24.352Z,16.98
2018-07-28T05:07:24.435Z,16.97
2018-07-28T05:08:24.380Z,17.04
2018-07-28T05:09:24.343Z,17.08
2018-07-28T05:10:24.350Z,17.15
2018-07-28T05:11:24.296Z,17.12
2018-07-28T05:12:24.296Z,17.30
2018-07-28T05:13:24.270Z,17.31
2018-07-28T05:14:24.365Z,17.34
2018-07-28T05:15:24.253Z,17.37
2018-07-28T05:16:24.281Z,17.43
2018-07-28T05:17:24.225Z,17.38
2018-07-28T05:18:24.213Z,17.51
2018-07-28T05:19:24.207Z,17.51
2018-07-28T05:20:24.236Z,17.52
2018-07-28T05:21:24.175Z,17.56
2018-07-28T05:22:24.181Z,17.66
2018-07-28T05:23:24.155Z,17.64
2018-07-28T05:24:24.143Z,17.71
2018-07-28T05:25:24.134Z,17.75
2018-07-28T05:26:24.131Z,17.81
2018-07-28T05:27:24.124Z,17.92
2018-07-28T05:28:24.097Z,17.90
2018-07-28T05:29:24.104Z,18.02
2018-07-28T05:30:24.076Z,18.07
2018-07-28T05:31:24.077Z,18.12
2018-07-28T05:32:24.097Z,18.18
2018-07-28T05:33:24.043Z,18.23
2018-07-28T05:34:24.054Z,18.17
2018-07-28T05:35:24.021Z,18.12
2018-07-28T05:36:24.005Z,18.23
2018-07-28T05:37:23.993Z,18.25
2018-07-28T05:38:24.005Z,18.32
2018-07-28T05:39:23.974Z,18.35
2018-07-28T05:40:23.983Z,18.41
2018-07-28T05:41:23.974Z,18.39
2018-07-28T05:42:24.009Z,18.47
2018-07-28T05:43:23.967Z,18.51
2018-07-28T05:44:23.946Z,18.51
2018-07-28T05:45:23.912Z,18.55
2018-07-28T05:46:23.896Z,18.62
2018-07-28T05:47:23.887Z,18.75
2018-07-28T05:48:23.873Z,18.70
2018-07-28T05:49:24.039Z,18.75
2018-07-28T05:50:23.893Z,18.80
2018-07-28T05:51:23.832Z,18.81
2018-07-28T05:52:23.837Z,18.95
2018-07-28T05:53:23.819Z,18.99
2018-07-28T05:54:23.838Z,19.04
2018-07-28T05:55:23.797Z,19.08
2018-07-28T05:56:23.804Z,19.16
2018-07-28T05:57:23.788Z,19.26
2018-07-28T05:58:23.764Z,19.32
2018-07-28T05:59:23.748Z,19.37
2018-07-28T06:00:23.774Z,19.36
2018-07-28T06:01:23.748Z,19.39
2018-07-28T06:02:23.762Z,19.46
2018-07-28T06:03:23.727Z,19.51
2018-07-28T06:04:23.705Z,19.54
2018-07-28T06:05:23.710Z,19.47
2018-07-28T06:06:23.671Z,19.51
2018-07-28T06:07:23.681Z,19.51
2018-07-28T06:08:23.670Z,19.61
2018-07-28T06:09:23.635Z,19.61
2018-07-28T06:10:23.658Z,19.61
2018-07-28T06:11:23.615Z,19.66
2018-07-28T06:12:23.606Z,19.69
2018-07-28T06:13:23.586Z,19.74
2018-07-28T06:14:23.591Z,19.68
2018-07-28T06:15:23.606Z,19.71
2018-07-28T06:16:23.557Z,19.74
2018-07-28T06:17:23.561Z,19.81
2018-07-28T06:18:23.531Z,19.92
2018-07-28T06:19:23.525Z,19.92
2018-07-28T06:20:23.594Z,19.99
2018-07-28T06:21:23.495Z,20.01
2018-07-28T06:22:23.509Z,20.11
2018-07-28T06:23:23.552Z,20.10
2018-07-28T06:24:23.467Z,20.16
2018-07-28T06:25:23.482Z,20.20
2018-07-28T06:26:23.479Z,20.20
2018-07-28T06:27:23.482Z,20.38
2018-07-28T06:28:23.421Z,20.51
2018-07-28T06:29:23.408Z,20.58
2018-07-28T06:30:23.401Z,20.74
2018-07-28T06:31:23.416Z,20.61
2018-07-28T06:32:23.404Z,20.76
2018-07-28T06:33:23.359Z,20.74
2018-07-28T06:34:23.350Z,20.84
2018-07-28T06:35:23.346Z,20.94
2018-07-28T06:36:23.365Z,20.92
2018-07-28T06:37:23.388Z,20.94
2018-07-28T06:38:23.320Z,20.92
2018-07-28T06:39:23.294Z,20.98
2018-07-28T06:40:23.307Z,20.95
2018-07-28T06:41:23.291Z,21.01
2018-07-28T06:42:23.266Z,21.07
2018-07-28T06:43:23.287Z,21.10
2018-07-28T06:44:23.253Z,21.12
2018-07-28T06:45:23.232Z,21.19
2018-07-28T06:46:23.241Z,21.19
2018-07-28T06:47:23.219Z,21.29
2018-07-28T06:48:23.242Z,21.32
2018-07-28T06:49:23.228Z,21.47
2018-07-28T06:50:23.180Z,21.49
2018-07-28T06:51:23.193Z,21.62
2018-07-28T06:52:23.144Z,22.02
2018-07-28T06:53:23.177Z,22.61
2018-07-28T06:54:23.152Z,23.04
2018-07-28T06:55:23.126Z,23.60
2018-07-28T06:56:23.116Z,23.97
2018-07-28T06:57:23.108Z,24.31
2018-07-28T06:58:23.120Z,24.61
2018-07-28T06:59:23.114Z,24.88
2018-07-28T07:00:23.091Z,25.23
2018-07-28T07:01:23.062Z,25.45
2018-07-28T07:02:23.048Z,25.75
2018-07-28T07:03:23.040Z,25.98
2018-07-28T07:04:23.059Z,26.20
2018-07-28T07:05:23.027Z,26.52
2018-07-28T07:06:22.994Z,26.73
2018-07-28T07:07:22.977Z,26.97
2018-07-28T07:08:23.581Z,27.17
2018-07-28T07:09:22.960Z,27.39
2018-07-28T07:10:22.964Z,27.46
2018-07-28T07:11:22.932Z,27.62
2018-07-28T07:12:22.937Z,27.70
2018-07-28T07:13:22.919Z,27.88
2018-07-28T07:14:22.933Z,27.96
2018-07-28T07:15:22.941Z,27.96
2018-07-28T07:16:22.903Z,27.96
2018-07-28T07:17:22.874Z,27.96
2018-07-28T07:18:22.875Z,28.11
2018-07-28T07:19:22.865Z,28.25
2018-07-28T07:20:22.837Z,28.43
2018-07-28T07:21:22.894Z,28.44
2018-07-28T07:22:22.823Z,28.46
2018-07-28T07:23:22.804Z,28.54
2018-07-28T07:24:22.789Z,28.70
2018-07-28T07:25:22.807Z,28.70
2018-07-28T07:26:22.788Z,28.78
2018-07-28T07:27:22.828Z,28.78
2018-07-28T07:28:22.744Z,28.90
2018-07-28T07:29:22.749Z,29.02
2018-07-28T07:30:22.754Z,29.05
2018-07-28T07:31:23.573Z,29.00
2018-07-28T07:32:22.802Z,28.98
2018-07-28T07:33:22.732Z,29.06
2018-07-28T07:34:22.719Z,29.09
2018-07-28T07:35:22.697Z,29.00
2018-07-28T07:36:22.671Z,29.04
2018-07-28T07:37:22.691Z,29.02
2018-07-28T07:38:22.658Z,29.04
2018-07-28T07:39:22.648Z,28.78
2018-07-28T07:40:22.652Z,28.70
2018-07-28T07:41:22.607Z,28.52
2018-07-28T07:42:23.487Z,28.62
2018-07-28T07:43:22.635Z,28.67
2018-07-28T07:44:22.635Z,28.66
2018-07-28T07:45:22.580Z,28.71
2018-07-28T07:46:22.559Z,28.70
2018-07-28T07:47:22.567Z,28.86
2018-07-28T07:48:22.555Z,28.88
2018-07-28T07:49:22.556Z,28.66
2018-07-28T07:50:22.506Z,28.70
2018-07-28T07:51:22.499Z,28.77
2018-07-28T07:52:22.511Z,28.90
2018-07-28T07:53:22.487Z,28.95
2018-07-28T07:54:22.516Z,29.19
2018-07-28T07:55:22.489Z,29.19
2018-07-28T07:56:22.459Z,29.21
2018-07-28T07:57:22.460Z,29.31
2018-07-28T07:58:22.433Z,29.27
2018-07-28T07:59:22.418Z,29.24
2018-07-28T08:00:22.406Z,29.06
2018-07-28T08:01:22.396Z,28.78
2018-07-28T08:02:22.373Z,28.76
2018-07-28T08:03:22.392Z,28.83
2018-07-28T08:04:22.411Z,28.98
2018-07-28T08:05:22.339Z,29.26
2018-07-28T08:06:22.438Z,29.23
2018-07-28T08:07:22.321Z,29.36
2018-07-28T08:08:22.310Z,29.39
2018-07-28T08:09:22.305Z,29.46
2018-07-28T08:10:22.296Z,29.48
2018-07-28T08:11:22.290Z,29.57
2018-07-28T08:12:22.266Z,29.55
2018-07-28T08:13:22.254Z,29.58
2018-07-28T08:14:22.258Z,29.53
2018-07-28T08:15:22.231Z,29.42
2018-07-28T08:16:22.228Z,29.36
2018-07-28T08:17:22.209Z,29.42
2018-07-28T08:18:22.248Z,29.42
2018-07-28T08:19:22.213Z,29.58
2018-07-28T08:20:22.178Z,29.26
2018-07-28T08:21:22.191Z,29.14
2018-07-28T08:22:22.168Z,29.19
2018-07-28T08:23:22.157Z,29.16
2018-07-28T08:24:22.163Z,28.83
2018-07-28T08:25:22.122Z,28.76
2018-07-28T08:26:22.114Z,28.66
2018-07-28T08:27:22.094Z,28.56
2018-07-28T08:28:22.102Z,28.61
2018-07-28T08:29:22.098Z,28.58
2018-07-28T08:30:22.068Z,28.51
2018-07-28T08:31:22.076Z,28.34
2018-07-28T08:32:22.042Z,27.87
2018-07-28T08:33:22.126Z,27.81
2018-07-28T08:34:22.047Z,27.78
2018-07-28T08:35:22.015Z,27.77
2018-07-28T08:36:22.001Z,27.77
2018-07-28T08:37:22.017Z,27.90
2018-07-28T08:38:22.042Z,27.87
2018-07-28T08:39:22.003Z,28.06
2018-07-28T08:40:21.991Z,28.17
2018-07-28T08:41:21.944Z,28.21
2018-07-28T08:42:21.936Z,28.22
2018-07-28T08:43:21.924Z,28.29
2018-07-28T08:44:21.942Z,28.40
2018-07-28T08:45:21.902Z,28.54
2018-07-28T08:46:21.919Z,28.51
2018-07-28T08:47:21.893Z,28.09
2018-07-28T08:48:21.884Z,27.75
2018-07-28T08:49:21.987Z,27.55
2018-07-28T08:50:21.869Z,27.75
2018-07-28T08:51:21.840Z,27.94
2018-07-28T08:52:21.841Z,28.19
2018-07-28T08:53:21.824Z,28.39
2018-07-28T08:54:21.822Z,28.67
2018-07-28T08:55:21.826Z,28.86
2018-07-28T08:56:21.783Z,29.08
2018-07-28T08:57:21.769Z,29.15
2018-07-28T08:58:21.785Z,29.24
2018-07-28T08:59:21.745Z,29.33
2018-07-28T09:00:21.757Z,29.41
2018-07-28T09:01:21.746Z,29.51
2018-07-28T09:02:21.715Z,29.63
2018-07-28T09:03:21.714Z,29.71
2018-07-28T09:04:21.711Z,29.89
2018-07-28T09:05:21.717Z,29.90
2018-07-28T09:06:21.672Z,29.95
2018-07-28T09:07:21.667Z,29.95
2018-07-28T09:08:21.670Z,30.00
2018-07-28T09:09:21.645Z,30.05
2018-07-28T09:10:21.644Z,30.27
2018-07-28T09:11:21.631Z,30.32
2018-07-28T09:12:21.618Z,30.39
2018-07-28T09:13:21.594Z,30.42
2018-07-28T09:14:21.585Z,30.49
2018-07-28T09:15:21.570Z,30.53
2018-07-28T09:16:21.647Z,30.69
2018-07-28T09:17:21.553Z,30.73
2018-07-28T09:18:21.540Z,30.55
2018-07-28T09:19:21.533Z,30.65
2018-07-28T09:20:21.516Z,30.69
2018-07-28T09:21:21.514Z,30.79
2018-07-28T09:22:21.521Z,30.72
2018-07-28T09:23:21.558Z,30.73
2018-07-28T09:24:21.475Z,30.82
2018-07-28T09:25:21.508Z,30.70
2018-07-28T09:26:21.447Z,30.69
2018-07-28T09:27:21.466Z,30.29
2018-07-28T09:28:21.448Z,29.86
2018-07-28T09:29:21.415Z,29.64
2018-07-28T09:30:21.414Z,29.71
2018-07-28T09:31:21.399Z,29.94
2018-07-28T09:32:21.389Z,30.10
2018-07-28T09:33:21.387Z,30.31
2018-07-28T09:34:21.403Z,30.32
2018-07-28T09:35:21.356Z,30.45
2018-07-28T09:36:21.374Z,30.55
2018-07-28T09:37:21.348Z,30.76
2018-07-28T09:38:21.367Z,30.94
2018-07-28T09:39:21.312Z,31.04
2018-07-28T09:40:21.342Z,31.26
2018-07-28T09:41:21.295Z,31.32
2018-07-28T09:42:21.292Z,31.36
2018-07-28T09:43:21.267Z,31.44
2018-07-28T09:44:21.284Z,31.54
2018-07-28T09:45:21.270Z,31.54
2018-07-28T09:46:21.289Z,31.66
2018-07-28T09:47:21.224Z,31.68
2018-07-28T09:48:21.215Z,31.76
2018-07-28T09:49:21.208Z,31.80
2018-07-28T09:50:21.210Z,31.70
2018-07-28T09:51:21.193Z,31.57
2018-07-28T09:52:21.205Z,31.58
2018-07-28T09:53:21.159Z,31.57
2018-07-28T09:54:21.161Z,31.62
2018-07-28T09:55:21.157Z,31.56
2018-07-28T09:56:21.223Z,31.62
2018-07-28T09:57:21.153Z,31.73
2018-07-28T09:58:21.104Z,31.56
2018-07-28T09:59:21.100Z,31.41
2018-07-28T10:00:21.097Z,31.46
2018-07-28T10:01:21.083Z,31.62
2018-07-28T10:02:21.083Z,31.66
2018-07-28T10:03:21.081Z,31.54
2018-07-28T10:04:21.038Z,31.58
2018-07-28T10:05:21.081Z,31.56
2018-07-28T10:06:21.020Z,31.51
2018-07-28T10:07:21.005Z,31.57
2018-07-28T10:08:20.999Z,31.66
2018-07-28T10:09:21.002Z,31.80
2018-07-28T10:10:20.978Z,31.80
2018-07-28T10:11:20.978Z,31.84
2018-07-28T10:12:20.985Z,31.84
2018-07-28T10:13:20.970Z,31.86
2018-07-28T10:14:20.938Z,31.68
2018-07-28T10:15:20.943Z,31.61
2018-07-28T10:16:21.036Z,31.62
2018-07-28T10:17:20.907Z,31.56
2018-07-28T10:18:20.888Z,31.68
2018-07-28T10:19:20.880Z,31.57
2018-07-28T10:20:20.866Z,31.35
2018-07-28T10:21:20.892Z,31.25
2018-07-28T10:22:20.879Z,31.31
2018-07-28T10:23:20.839Z,31.43
2018-07-28T10:24:20.827Z,31.56
2018-07-28T10:25:20.822Z,31.80
2018-07-28T10:26:20.820Z,31.88
2018-07-28T10:27:20.807Z,31.88
2018-07-28T10:28:20.786Z,31.86
2018-07-28T10:29:20.772Z,31.80
2018-07-28T10:30:20.762Z,31.84
2018-07-28T10:31:20.765Z,31.85
2018-07-28T10:32:20.741Z,31.78
2018-07-28T10:33:20.760Z,31.56
2018-07-28T10:34:20.717Z,31.51
2018-07-28T10:35:20.710Z,31.39
2018-07-28T10:36:20.777Z,31.32
2018-07-28T10:37:20.698Z,31.29
2018-07-28T10:38:20.706Z,31.31
2018-07-28T10:39:20.676Z,31.28
2018-07-28T10:40:20.664Z,31.26
2018-07-28T10:41:20.655Z,31.20
2018-07-28T10:42:20.636Z,30.97
2018-07-28T10:43:20.628Z,30.76
2018-07-28T10:44:20.625Z,30.65
2018-07-28T10:45:20.618Z,30.65
2018-07-28T10:46:20.615Z,30.57
2018-07-28T10:47:20.578Z,30.69
2018-07-28T10:48:20.575Z,30.55
2018-07-28T10:49:20.567Z,30.35
2018-07-28T10:50:20.555Z,30.27
2018-07-28T10:51:20.567Z,30.42
2018-07-28T10:52:20.528Z,30.45
2018-07-28T10:53:20.519Z,30.49
2018-07-28T10:54:20.505Z,30.37
2018-07-28T10:55:20.509Z,30.32
2018-07-28T10:56:20.530Z,30.24
2018-07-28T10:57:20.480Z,30.24
2018-07-28T10:58:20.467Z,30.13
2018-07-28T10:59:20.456Z,30.04
2018-07-28T11:00:20.447Z,29.94
2018-07-28T11:01:20.430Z,29.94
2018-07-28T11:02:20.452Z,29.83
2018-07-28T11:03:20.443Z,29.71
2018-07-28T11:04:20.400Z,29.58
2018-07-28T11:05:20.388Z,29.42
2018-07-28T11:06:21.043Z,28.98
2018-07-28T11:07:20.419Z,28.83
2018-07-28T11:08:20.364Z,28.70
2018-07-28T11:09:20.402Z,28.51
2018-07-28T11:10:20.333Z,28.29
2018-07-28T11:11:20.317Z,28.03
2018-07-28T11:12:20.311Z,27.57
2018-07-28T11:13:20.326Z,27.28
2018-07-28T11:14:20.314Z,26.92
2018-07-28T11:15:20.281Z,26.67
2018-07-28T11:16:20.267Z,26.52
2018-07-28T11:17:20.251Z,26.36
2018-07-28T11:18:20.259Z,26.17
2018-07-28T11:19:20.234Z,26.12
2018-07-28T11:20:20.223Z,25.97
2018-07-28T11:21:20.220Z,25.82
2018-07-28T11:22:20.199Z,25.65
2018-07-28T11:23:20.208Z,25.38
2018-07-28T11:24:20.175Z,25.20
2018-07-28T11:25:20.205Z,25.00
2018-07-28T11:26:20.242Z,24.95
2018-07-28T11:27:20.151Z,24.90
2018-07-28T11:28:20.165Z,24.87
2018-07-28T11:29:20.125Z,24.80
2018-07-28T11:30:20.114Z,24.69
2018-07-28T11:31:20.107Z,24.58
2018-07-28T11:32:20.091Z,24.62
2018-07-28T11:33:20.148Z,24.55
2018-07-28T11:34:20.097Z,24.55
2018-07-28T11:35:20.053Z,24.50
2018-07-28T11:36:20.057Z,24.46
2018-07-28T11:37:20.032Z,24.32
2018-07-28T11:38:20.023Z,24.22
2018-07-28T11:39:20.023Z,24.12
2018-07-28T11:40:20.023Z,23.87
2018-07-28T11:41:20.028Z,23.63
2018-07-28T11:42:19.991Z,23.28
2018-07-28T11:43:19.959Z,23.07
2018-07-28T11:44:19.953Z,22.92
2018-07-28T11:45:19.960Z,22.86
2018-07-28T11:46:19.933Z,22.95
2018-07-28T11:47:19.914Z,22.88
2018-07-28T11:48:19.903Z,22.85
2018-07-28T11:49:19.888Z,22.77
2018-07-28T11:50:19.902Z,22.83
2018-07-28T11:51:19.927Z,22.68
2018-07-28T11:52:19.878Z,22.54
2018-07-28T11:53:19.872Z,22.49
2018-07-28T11:54:19.834Z,22.33
2018-07-28T11:55:19.828Z,22.24
2018-07-28T11:56:19.843Z,21.96
2018-07-28T11:57:19.814Z,21.56
2018-07-28T11:58:19.847Z,21.37
2018-07-28T11:59:19.800Z,21.47
2018-07-28T12:00:19.772Z,21.44
2018-07-28T12:01:19.763Z,21.46
2018-07-28T12:02:19.770Z,21.59
2018-07-28T12:03:19.751Z,21.58
2018-07-28T12:04:19.736Z,21.56
2018-07-28T12:05:19.717Z,21.64
2018-07-28T12:06:19.708Z,21.62
2018-07-28T12:07:19.694Z,21.72
2018-07-28T12:08:19.695Z,21.80
2018-07-28T12:09:19.702Z,21.82
2018-07-28T12:10:19.660Z,21.82
2018-07-28T12:11:19.650Z,21.80
2018-07-28T12:12:19.638Z,21.71
2018-07-28T12:13:19.657Z,21.65
2018-07-28T12:14:19.618Z,21.72
2018-07-28T12:15:19.624Z,21.72
2018-07-28T12:16:19.616Z,21.79
2018-07-28T12:17:19.612Z,21.92
2018-07-28T12:18:19.609Z,21.96
2018-07-28T12:19:19.586Z,21.91
2018-07-28T12:20:19.549Z,21.92
2018-07-28T12:21:19.570Z,21.84
2018-07-28T12:22:19.555Z,21.82
2018-07-28T12:23:19.543Z,21.80
2018-07-28T12:24:19.560Z,21.98
2018-07-28T12:25:19.496Z,21.99
2018-07-28T12:26:19.492Z,22.21
2018-07-28T12:27:19.493Z,22.46
2018-07-28T12:28:19.464Z,22.82
2018-07-28T12:29:19.509Z,23.10
2018-07-28T12:30:19.453Z,23.23
2018-07-28T12:31:19.434Z,23.20
2018-07-28T12:32:19.425Z,23.25
2018-07-28T12:33:19.430Z,23.20
2018-07-28T12:34:19.448Z,23.16
2018-07-28T12:35:19.386Z,23.33
2018-07-28T12:36:19.388Z,23.43
2018-07-28T12:37:19.361Z,23.57
2018-07-28T12:38:19.407Z,23.76
2018-07-28T12:39:19.364Z,24.02
2018-07-28T12:40:19.328Z,24.34
2018-07-28T12:41:19.315Z,24.61
2018-07-28T12:42:19.314Z,24.78
2018-07-28T12:43:19.330Z,24.78
2018-07-28T12:44:19.312Z,24.85
2018-07-28T12:45:19.306Z,24.91
2018-07-28T12:46:19.262Z,24.99
2018-07-28T12:47:19.253Z,25.09
2018-07-28T12:48:19.239Z,25.20
2018-07-28T12:49:19.257Z,25.21
2018-07-28T12:50:19.218Z,24.95
2018-07-28T12:51:19.240Z,24.69
2018-07-28T12:52:19.216Z,24.77